MDPP/POP METAR and TAF weather

Enter ICAO airport designator
Station Type Date Time Source
MDPP METAR 2019/05/21 21:00 UTC NOAA

MDPP 212100Z 09010KT 7000 -TSRA FEW016CB SCT020 SCT300 24/22 Q1012 CB/ALLQDS


Station Type Date Time Source
MDPP Decoded METAR 2019/05/21 21:00 UTC NOAA

Puerto Plata International, Dominican Republic (MDPP) 19-45N 070-33W
May 21, 2019 - 05:00 PM EDT / 2019.05.21 2100 UTC
Wind: from the E (090 degrees) at 12 MPH (10 KT):0
Visibility: 4 mile(s):0
Sky conditions: partly cloudy
Weather: light rain with thunder; Cumulonimbus clouds observed
Temperature: 75 F (24 C)
Dew Point: 71 F (22 C)
Relative Humidity: 88%
Pressure (altimeter): 29.88 in. Hg (1012 hPa)
ob: MDPP 212100Z 09010KT 7000 -TSRA FEW016CB SCT020 SCT300 24/22 Q1012 CB/ALLQDS
cycle: 21

Station Type Date Time Source
MDPP TAF 2019/05/21 18:41 UTC NOAA

TAF MDPP 211600Z 2118/2218 36010KT 9999 SCT025 SCT300 PROB40 2118/2200 8000-SHRA SCT017 BKN300
BECMG 2119/2121 15015KT

Example: see airport list